Terminal Aerodrome Forecast
Issued by NWS Tuscon, AZ

Home | Current Version | Previous Version | Text Only | Print | Product List | Glossary On
Versions: 1 2 3 4 5 6 7 8 9 10 11 12 13 14 15 16
044
FTUS45 KTWC 251720
TAFTUS
TAF
KTUS 251720Z 2518/2618 12008KT P6SM SCT080
     FM252000 23009KT P6SM VCSH SCT080 BKN150
     FM260300 16006KT P6SM SCT080 BKN200=

USA.gov is the U.S. government's official web portal to all federal, state and local government web resources and services.